METAR Data
IDs: Format: Raw Decoded Include TAF

Data at: 0202 UTC 01 Mar 2021

KGPH 010155Z AUTO 34007KT 10SM CLR 02/M01 A3015 RMK AO2